createdAt,value
2022-10-08T00:29:44.449Z,15.00
2022-10-08T00:32:25.546Z,15.06
2022-10-08T00:35:01.404Z,13.51
2022-10-08T00:37:45.763Z,15.68
2022-10-08T00:40:51.148Z,15.33
2022-10-08T00:43:48.320Z,14.33
2022-10-08T00:46:40.394Z,15.64
2022-10-08T00:49:15.518Z,13.76
2022-10-08T00:51:56.704Z,14.96
2022-10-08T00:54:31.263Z,15.10
2022-10-08T00:56:58.886Z,15.66
2022-10-08T00:59:28.435Z,16.52
2022-10-08T01:01:57.457Z,16.48
2022-10-08T01:04:25.486Z,16.47
2022-10-08T01:06:57.607Z,16.44
2022-10-08T01:09:29.994Z,16.43
2022-10-08T01:12:01.302Z,16.30
2022-10-08T01:14:33.784Z,16.16
2022-10-08T01:17:07.158Z,16.34
2022-10-08T01:19:48.804Z,16.36
2022-10-08T01:22:21.527Z,16.32
2022-10-08T01:25:06.977Z,16.42
2022-10-08T01:27:38.500Z,16.14
2022-10-08T01:30:07.861Z,16.13
2022-10-08T01:32:38.667Z,16.17
2022-10-08T01:35:09.413Z,16.46
2022-10-08T01:37:39.045Z,16.22
2022-10-08T01:40:09.436Z,16.35
2022-10-08T01:42:39.864Z,16.33
2022-10-08T01:45:09.399Z,16.12
2022-10-08T01:47:39.563Z,16.31
2022-10-08T01:50:09.916Z,16.35
2022-10-08T01:52:38.638Z,16.34
2022-10-08T01:55:08.452Z,16.34
2022-10-08T01:57:37.695Z,16.33
2022-10-08T02:00:07.407Z,16.32
2022-10-08T02:02:35.201Z,16.32
2022-10-08T02:05:02.964Z,16.32
2022-10-08T02:07:31.954Z,16.31
2022-10-08T02:10:05.862Z,16.26
2022-10-08T02:12:33.470Z,16.32
2022-10-08T02:15:02.419Z,16.43
2022-10-08T02:17:35.683Z,16.47
2022-10-08T02:20:06.054Z,16.50
2022-10-08T02:22:35.536Z,16.54
2022-10-08T02:25:08.019Z,16.31
2022-10-08T02:27:40.694Z,16.61
2022-10-08T02:30:10.779Z,16.51
2022-10-08T02:32:39.693Z,16.52
2022-10-08T02:35:11.292Z,16.71
2022-10-08T02:37:41.132Z,16.75
2022-10-08T02:40:10.657Z,16.79
2022-10-08T02:42:38.920Z,16.84
2022-10-08T02:45:08.334Z,16.88
2022-10-08T02:47:37.737Z,16.92
2022-10-08T02:50:09.910Z,16.41
2022-10-08T02:52:40.394Z,16.53
2022-10-08T02:55:11.734Z,16.92
2022-10-08T02:57:42.361Z,16.93
2022-10-08T03:00:11.397Z,16.84
2022-10-08T03:02:41.284Z,16.89
2022-10-08T03:05:10.369Z,16.94
2022-10-08T03:07:38.079Z,16.81
2022-10-08T03:10:06.503Z,17.01
2022-10-08T03:12:34.268Z,16.94
2022-10-08T03:15:02.081Z,17.07
2022-10-08T03:17:38.752Z,16.83
2022-10-08T03:20:08.757Z,16.75
2022-10-08T03:22:37.400Z,17.20
2022-10-08T03:25:05.417Z,17.20
2022-10-08T03:27:35.033Z,17.14
2022-10-08T03:30:03.026Z,17.25
2022-10-08T03:32:30.587Z,17.29
2022-10-08T03:34:58.332Z,17.30
2022-10-08T03:37:27.227Z,17.34
2022-10-08T03:39:54.806Z,17.35
2022-10-08T03:42:22.432Z,17.29
2022-10-08T03:44:50.106Z,17.35
2022-10-08T03:47:17.686Z,17.36
2022-10-08T03:49:45.351Z,17.26
2022-10-08T03:52:12.896Z,17.14
2022-10-08T03:54:41.833Z,17.33
2022-10-08T03:57:09.436Z,17.27
2022-10-08T03:59:37.037Z,17.14
2022-10-08T04:02:04.753Z,17.29
2022-10-08T04:04:32.431Z,17.26
2022-10-08T04:07:00.159Z,17.24
2022-10-08T04:09:27.793Z,17.16
2022-10-08T04:11:56.692Z,17.08
2022-10-08T04:14:24.581Z,17.17
2022-10-08T04:16:52.209Z,17.17
2022-10-08T04:19:19.923Z,17.21
2022-10-08T04:21:48.165Z,17.21
2022-10-08T04:24:15.863Z,17.19
2022-10-08T04:26:43.438Z,17.17
2022-10-08T04:29:12.978Z,17.15
2022-10-08T04:31:40.876Z,17.12
2022-10-08T04:34:08.445Z,17.11
2022-10-08T04:36:36.019Z,17.10
2022-10-08T04:39:03.807Z,17.08
2022-10-08T04:44:05.510Z,17.05
2022-10-08T04:46:34.695Z,16.73
2022-10-08T04:49:02.572Z,16.46
2022-10-08T04:51:30.417Z,14.70
2022-10-08T04:53:58.312Z,14.66
2022-10-08T04:56:27.530Z,16.00
2022-10-08T04:58:56.068Z,15.22
2022-10-08T05:01:24.047Z,16.48
2022-10-08T05:03:54.686Z,15.29
2022-10-08T05:06:23.831Z,15.56
2022-10-08T05:08:52.708Z,16.32
2022-10-08T05:11:20.650Z,16.58
2022-10-08T05:13:50.793Z,16.36
2022-10-08T05:16:19.081Z,15.66
2022-10-08T05:18:47.076Z,16.34
2022-10-08T05:21:16.944Z,14.78
2022-10-08T05:23:44.739Z,14.83
2022-10-08T05:26:14.304Z,16.06
2022-10-08T05:28:42.133Z,15.67
2022-10-08T05:31:09.996Z,15.76
2022-10-08T05:33:38.182Z,16.24
2022-10-08T05:36:06.797Z,16.08
2022-10-08T05:38:36.340Z,16.69
2022-10-08T05:41:11.172Z,15.60
2022-10-08T05:43:38.923Z,15.21
2022-10-08T05:46:06.850Z,15.95
2022-10-08T05:48:34.686Z,15.89
2022-10-08T05:51:06.565Z,16.09
2022-10-08T05:53:37.326Z,15.83
2022-10-08T05:56:06.434Z,16.05
2022-10-08T05:58:35.072Z,14.83
2022-10-08T06:01:03.456Z,16.24
2022-10-08T06:03:31.149Z,16.13
2022-10-08T06:06:02.788Z,15.89
2022-10-08T06:08:30.460Z,15.37
2022-10-08T06:10:59.546Z,16.03
2022-10-08T06:13:27.268Z,16.34
2022-10-08T06:15:56.520Z,15.78
2022-10-08T06:18:24.545Z,16.90
2022-10-08T06:20:52.317Z,16.39
2022-10-08T06:23:20.181Z,16.32
2022-10-08T06:25:47.924Z,16.12
2022-10-08T06:28:17.077Z,17.10
2022-10-08T06:30:44.869Z,15.59
2022-10-08T06:33:12.636Z,16.34
2022-10-08T06:35:40.361Z,16.30
2022-10-08T06:38:09.252Z,17.17
2022-10-08T06:40:39.234Z,15.46
2022-10-08T06:43:07.722Z,15.14
2022-10-08T06:45:40.479Z,15.24
2022-10-08T06:48:25.215Z,17.18
2022-10-08T06:50:58.954Z,16.98
2022-10-08T06:53:26.750Z,17.20
2022-10-08T06:55:57.685Z,17.13
2022-10-08T06:58:25.449Z,17.24
2022-10-08T07:01:03.534Z,17.27
2022-10-08T07:03:31.360Z,17.26
2022-10-08T07:06:01.097Z,17.25
2022-10-08T07:08:28.818Z,17.27
2022-10-08T07:10:56.501Z,17.29
2022-10-08T07:13:24.140Z,17.29
2022-10-08T07:18:36.008Z,15.71
2022-10-08T07:21:03.990Z,17.34
2022-10-08T07:27:19.181Z,17.21
2022-10-08T07:29:48.088Z,17.37
2022-10-08T07:32:15.669Z,17.40
2022-10-08T07:34:45.691Z,17.43
2022-10-08T07:37:13.354Z,17.41
2022-10-08T07:39:42.017Z,17.49
2022-10-08T07:42:09.651Z,17.50
2022-10-08T07:44:43.662Z,17.51
2022-10-08T07:47:11.229Z,17.54
2022-10-08T07:49:38.950Z,17.56
2022-10-08T07:52:08.106Z,17.62
2022-10-08T07:54:35.868Z,17.63
2022-10-08T07:57:03.458Z,17.67
2022-10-08T07:59:32.154Z,17.74
2022-10-08T08:01:59.759Z,17.58
2022-10-08T08:04:27.720Z,17.82
2022-10-08T08:06:55.309Z,17.85
2022-10-08T08:09:24.494Z,17.66
2022-10-08T08:11:52.104Z,17.78
2022-10-08T08:14:21.492Z,17.41
2022-10-08T08:16:49.326Z,17.91
2022-10-08T08:19:16.934Z,18.54
2022-10-08T08:21:44.669Z,18.67
2022-10-08T08:24:13.017Z,19.06
2022-10-08T08:26:42.821Z,19.13
2022-10-08T08:29:12.414Z,18.40
2022-10-08T08:31:41.483Z,17.97
2022-10-08T08:34:13.068Z,19.22
2022-10-08T08:36:42.205Z,19.02
2022-10-08T08:39:14.721Z,19.35
2022-10-08T08:41:55.680Z,19.08
2022-10-08T08:44:25.165Z,18.61
2022-10-08T08:46:56.053Z,18.55
2022-10-08T09:53:32.695Z,23.40
2022-10-08T10:24:02.053Z,27.00
2022-10-08T10:26:41.787Z,27.38
2022-10-08T10:29:11.497Z,30.76
2022-10-08T10:31:39.714Z,33.11
2022-10-08T10:34:08.529Z,34.48
2022-10-08T10:36:37.846Z,36.23
2022-10-08T10:39:12.264Z,37.26
2022-10-08T10:41:43.316Z,38.19
2022-10-08T10:44:11.462Z,38.88
2022-10-08T10:46:41.803Z,38.24
2022-10-08T10:49:42.294Z,37.93
2022-10-08T10:52:24.286Z,37.10
2022-10-08T10:55:02.973Z,36.32
2022-10-08T10:57:40.587Z,36.75
2022-10-08T11:00:11.155Z,37.18
2022-10-08T11:02:41.695Z,35.83
2022-10-08T11:05:13.100Z,34.53
2022-10-08T11:08:03.441Z,34.83
2022-10-08T11:10:40.994Z,36.36
2022-10-08T11:13:17.142Z,38.65
2022-10-08T11:15:45.934Z,39.07
2022-10-08T11:18:22.141Z,37.25
2022-10-08T11:20:56.705Z,35.09
2022-10-08T11:23:48.704Z,32.89
2022-10-08T11:26:22.720Z,30.93
2022-10-08T11:28:55.166Z,29.85
2022-10-08T11:31:27.840Z,30.00
2022-10-08T11:33:55.773Z,31.67
2022-10-08T11:36:30.545Z,34.83
2022-10-08T11:39:04.696Z,37.51
2022-10-08T11:41:36.800Z,39.50
2022-10-08T11:44:04.637Z,39.00
2022-10-08T11:46:32.885Z,38.76
2022-10-08T11:49:01.627Z,38.12
2022-10-08T11:51:39.481Z,36.78
2022-10-08T11:54:17.873Z,35.65
2022-10-08T11:56:48.133Z,36.71
2022-10-08T11:59:33.640Z,37.13
2022-10-08T12:02:04.914Z,37.73
2022-10-08T12:04:35.448Z,38.36
2022-10-08T12:07:09.624Z,38.62
2022-10-08T12:10:23.772Z,38.43
2022-10-08T12:13:24.718Z,36.13
2022-10-08T12:21:56.402Z,32.00
2022-10-08T12:24:59.970Z,30.87
2022-10-08T12:27:35.677Z,30.17
2022-10-08T12:30:06.472Z,29.03
2022-10-08T12:32:34.981Z,28.38
2022-10-08T12:35:02.831Z,28.59
2022-10-08T12:37:42.198Z,26.91
2022-10-08T12:40:14.509Z,25.89
2022-10-08T12:42:42.721Z,26.17
2022-10-08T12:45:16.059Z,25.61
2022-10-08T12:47:47.351Z,25.84
2022-10-08T12:50:35.502Z,25.46
2022-10-08T12:53:03.157Z,24.98
2022-10-08T12:55:35.620Z,24.88
2022-10-08T12:58:05.388Z,24.74
2022-10-08T13:00:34.978Z,24.75
2022-10-08T13:03:03.439Z,24.80
2022-10-08T13:05:33.019Z,24.66
2022-10-08T13:08:07.305Z,24.71
2022-10-08T13:10:34.945Z,24.80
2022-10-08T13:13:03.407Z,24.75
2022-10-08T13:15:32.551Z,24.69
2022-10-08T13:18:12.649Z,24.58
2022-10-08T13:20:40.363Z,24.46
2022-10-08T13:23:26.296Z,24.30
2022-10-08T13:25:56.318Z,24.13
2022-10-08T13:28:42.147Z,23.38
2022-10-08T13:31:22.216Z,23.36
2022-10-08T13:33:51.566Z,23.53
2022-10-08T13:36:21.262Z,22.97
2022-10-08T13:38:48.906Z,24.10
2022-10-08T13:41:23.457Z,24.00
2022-10-08T13:43:51.235Z,24.00
2022-10-08T13:46:18.999Z,23.72
2022-10-08T13:48:46.678Z,23.84
2022-10-08T13:51:15.638Z,23.01
2022-10-08T13:53:45.519Z,23.67
2022-10-08T13:56:13.504Z,23.64
2022-10-08T13:58:41.176Z,23.60
2022-10-08T14:01:08.930Z,23.53
2022-10-08T14:03:36.602Z,23.50
2022-10-08T14:06:04.477Z,23.44
2022-10-08T14:08:34.335Z,23.38
2022-10-08T14:11:01.989Z,23.15
2022-10-08T14:13:29.709Z,23.19
2022-10-08T14:15:57.597Z,23.15
2022-10-08T14:18:26.378Z,23.15
2022-10-08T14:20:53.972Z,23.10
2022-10-08T14:23:22.191Z,23.06
2022-10-08T14:25:52.142Z,22.95
2022-10-08T14:28:19.891Z,22.87
2022-10-08T14:30:47.751Z,22.56
2022-10-08T14:33:15.358Z,22.73
2022-10-08T14:35:42.942Z,22.68
2022-10-08T14:38:10.647Z,22.57
2022-10-08T14:40:38.932Z,22.66
2022-10-08T14:43:07.911Z,22.68
2022-10-08T14:45:37.251Z,22.69
2022-10-08T14:48:05.124Z,21.96
2022-10-08T14:50:32.779Z,22.09
2022-10-08T14:53:00.463Z,22.89
2022-10-08T14:55:29.443Z,22.92
2022-10-08T14:57:57.255Z,23.01
2022-10-08T15:00:26.247Z,23.09
2022-10-08T15:02:53.920Z,23.15
2022-10-08T15:05:21.538Z,23.11
2022-10-08T15:07:49.488Z,22.96
2022-10-08T15:10:17.308Z,22.89
2022-10-08T15:12:45.701Z,22.29
2022-10-08T15:15:13.681Z,22.49
2022-10-08T15:17:42.644Z,22.72
2022-10-08T15:20:10.992Z,22.71
2022-10-08T15:22:38.836Z,22.10
2022-10-08T15:25:07.875Z,21.85
2022-10-08T15:27:35.761Z,22.03
2022-10-08T15:30:03.645Z,22.57
2022-10-08T15:32:31.352Z,22.54
2022-10-08T15:35:01.251Z,21.80
2022-10-08T15:59:15.696Z,21.97
2022-10-08T16:01:43.339Z,21.77
2022-10-08T16:04:12.861Z,21.63
2022-10-08T16:06:44.999Z,21.51
2022-10-08T16:09:18.841Z,20.80
2022-10-08T16:11:46.586Z,21.17
2022-10-08T16:14:15.318Z,20.97
2022-10-08T16:16:44.098Z,20.99
2022-10-08T16:25:09.010Z,20.08
2022-10-08T16:27:37.066Z,18.81
2022-10-08T16:30:37.418Z,20.03
2022-10-08T16:36:51.444Z,17.80
2022-10-08T16:39:20.833Z,20.07
2022-10-08T16:41:52.613Z,20.42
2022-10-08T16:44:22.059Z,20.20
2022-10-08T16:46:50.840Z,18.99
2022-10-08T16:49:24.288Z,20.30
2022-10-08T16:51:53.210Z,20.22
2022-10-08T16:54:20.948Z,19.80
2022-10-08T16:56:50.135Z,20.03
2022-10-08T16:59:36.273Z,18.12
2022-10-08T17:02:06.436Z,19.78
2022-10-08T17:04:39.120Z,19.67
2022-10-08T17:07:08.480Z,19.55
2022-10-08T17:09:36.645Z,19.46
2022-10-08T17:12:05.813Z,19.14
2022-10-08T17:14:34.362Z,19.26
2022-10-08T17:17:04.885Z,18.73
2022-10-08T17:19:32.691Z,19.09
2022-10-08T17:22:00.534Z,19.01
2022-10-08T17:24:28.418Z,18.93
2022-10-08T17:26:56.141Z,18.86
2022-10-08T17:29:25.197Z,18.79
2022-10-08T17:31:52.921Z,18.73
2022-10-08T17:34:20.705Z,18.67
2022-10-08T17:36:48.405Z,18.61
2022-10-08T17:39:16.211Z,18.34
2022-10-08T17:41:43.927Z,17.97
2022-10-08T17:44:11.952Z,18.17
2022-10-08T17:46:45.579Z,17.55
2022-10-08T17:49:13.834Z,18.28
2022-10-08T17:51:43.177Z,18.02
2022-10-08T17:54:12.760Z,18.04
2022-10-08T17:56:40.798Z,18.07
2022-10-08T17:59:08.899Z,18.00
2022-10-08T18:01:39.178Z,17.93
2022-10-08T18:04:11.029Z,17.85
2022-10-08T18:06:40.720Z,16.88
2022-10-08T18:09:09.516Z,17.12
2022-10-08T18:11:38.379Z,17.40
2022-10-08T18:14:07.892Z,17.26
2022-10-08T18:16:35.896Z,17.38
2022-10-08T18:19:08.619Z,17.48
2022-10-08T18:21:38.729Z,17.27
2022-10-08T18:24:06.524Z,16.78
2022-10-08T18:26:36.697Z,16.78
2022-10-08T18:29:15.781Z,17.22
2022-10-08T18:31:44.174Z,17.16
2022-10-08T18:34:13.436Z,16.90
2022-10-08T18:36:42.577Z,17.04
2022-10-08T18:39:12.085Z,16.98
2022-10-08T18:41:41.680Z,16.69
2022-10-08T18:44:13.537Z,16.48
2022-10-08T18:46:44.513Z,16.24
2022-10-08T18:49:13.794Z,16.71
2022-10-08T18:51:42.920Z,16.66
2022-10-08T18:54:11.248Z,16.18
2022-10-08T18:56:40.732Z,16.10
2022-10-08T18:59:09.217Z,16.51
2022-10-08T19:01:38.489Z,16.27
2022-10-08T19:04:08.010Z,16.38
2022-10-08T19:06:37.335Z,16.17
2022-10-08T19:09:06.554Z,16.27
2022-10-08T19:11:39.547Z,15.85
2022-10-08T19:14:12.039Z,16.16
2022-10-08T19:16:40.230Z,15.93
2022-10-08T19:19:11.642Z,16.07
2022-10-08T19:21:39.323Z,16.04
2022-10-08T19:24:09.001Z,15.99
2022-10-08T19:26:36.668Z,15.96
2022-10-08T19:29:04.407Z,15.90
2022-10-08T19:31:32.807Z,15.85
2022-10-08T19:34:01.174Z,15.79
2022-10-08T19:36:30.304Z,15.66
2022-10-08T19:38:58.518Z,15.70
2022-10-08T19:41:27.648Z,15.45
2022-10-08T19:43:56.340Z,15.60
2022-10-08T19:46:24.032Z,15.57
2022-10-08T19:48:52.082Z,15.09
2022-10-08T19:51:19.841Z,15.16
2022-10-08T19:53:47.478Z,15.33
2022-10-08T19:56:28.227Z,15.39
2022-10-08T19:58:56.987Z,13.96
2022-10-08T20:01:26.600Z,14.68
2022-10-08T20:03:56.070Z,14.63
2022-10-08T20:06:25.273Z,14.63
2022-10-08T20:08:54.930Z,13.71
2022-10-08T20:11:23.574Z,14.53
2022-10-08T20:13:54.100Z,13.52
2022-10-08T22:46:32.986Z,12.47
2022-10-08T22:59:33.394Z,13.12
2022-10-08T23:02:03.207Z,13.10
2022-10-08T23:04:31.527Z,13.06
2022-10-08T23:07:01.918Z,11.73
2022-10-08T23:09:29.873Z,12.83
2022-10-08T23:11:57.765Z,11.77
2022-10-08T23:14:25.933Z,9.84
2022-10-08T23:16:55.773Z,10.59
2022-10-08T23:19:24.022Z,11.93
2022-10-08T23:21:52.201Z,12.97
2022-10-08T23:24:20.523Z,12.32
2022-10-08T23:26:48.589Z,11.04
2022-10-08T23:29:16.747Z,11.15
2022-10-08T23:31:45.054Z,10.29
2022-10-08T23:34:25.759Z,12.44
2022-10-08T23:36:59.488Z,11.41
2022-10-08T23:39:27.642Z,11.78
2022-10-08T23:41:55.592Z,11.37
2022-10-08T23:44:23.851Z,11.36
2022-10-08T23:46:51.958Z,10.72
2022-10-08T23:49:21.472Z,10.42
2022-10-08T23:51:50.078Z,11.32
2022-10-08T23:54:18.198Z,12.64
2022-10-08T23:56:46.272Z,11.61
2022-10-08T23:59:14.161Z,12.15
